EST,Max TemperatureF,Mean TemperatureF,Min TemperatureF,Max Dew PointF,MeanDew PointF,Min DewpointF,Max Humidity, Mean Humidity, Min Humidity, Max Sea Level PressureIn, Mean Sea Level PressureIn, Min Sea Level PressureIn, Max VisibilityMiles, Mean VisibilityMiles, Min VisibilityMiles, Max Wind SpeedMPH, Mean Wind SpeedMPH, Max Gust SpeedMPH,PrecipitationIn, CloudCover, Events, WindDirDegrees
2012-11-1,57,50,43,32,28,19,65,45,30,29.85,29.79,29.74,10,10,10,14,6,21,0.00,1,,291
2012-11-2,66,53,42,38,29,19,54,40,28,29.95,29.85,29.80,10,10,10,14,5,21,0.00,3,,259
2012-11-3,68,54,39,40,32,28,68,49,23,30.06,29.99,29.95,10,10,10,8,4,,0.00,0,,324
2012-11-4,60,52,44,43,38,34,80,60,47,29.99,29.96,29.91,10,10,10,8,4,,0.00,3,,44
2012-11-5,57,47,36,38,33,29,93,61,36,30.06,30.02,29.97,10,10,10,6,2,,0.00,0,,53
2012-11-6,41,38,34,34,32,29,92,79,65,30.12,30.03,29.94,10,9,4,7,5,,0.02,6,Rain,23
2012-11-7,53,40,28,37,32,27,100,85,54,29.95,29.90,29.82,10,4,0,7,1,,0.00,6,Fog,313
2012-11-8,61,51,41,35,28,22,74,47,22,30.12,30.04,29.94,10,10,10,14,6,24,0.00,0,,314
2012-11-9,66,50,35,34,29,27,79,51,22,30.24,30.18,30.13,10,10,10,7,4,,0.00,0,,294
2012-11-10,72,54,37,37,32,30,79,49,22,30.33,30.28,30.22,10,10,10,6,1,,0.00,0,,266
2012-11-11,69,53,37,48,41,34,89,64,33,30.44,30.37,30.32,10,10,10,10,2,18,0.00,1,,197
2012-11-12,68,62,53,59,56,50,94,85,65,30.35,30.25,30.12,10,8,2,14,3,22,0.33,7,Rain,207
2012-11-13,59,48,36,52,37,24,96,67,26,30.38,30.25,30.16,10,10,5,12,7,20,0.13,4,Rain,16
2012-11-14,48,41,34,32,27,25,82,61,44,30.48,30.39,30.33,10,10,10,13,4,20,0.00,2,,45
2012-11-15,48,42,33,30,28,27,85,66,46,30.32,30.28,30.22,10,10,9,8,3,,0.00,3,,32
2012-11-16,57,44,30,35,29,25,92,64,28,30.37,30.29,30.23,10,9,5,6,2,,0.00,0,,11
2012-11-17,57,44,30,31,26,23,88,53,27,30.48,30.42,30.38,10,10,10,12,4,20,0.00,0,,41
2012-11-18,55,50,44,40,35,24,66,57,45,30.46,30.40,30.34,10,10,10,13,7,21,0.00,6,,23
2012-11-19,59,52,44,45,41,36,90,69,60,30.35,30.26,30.18,10,10,10,9,6,,0.00,5,,24
2012-11-20,60,50,39,42,40,37,97,80,47,30.18,30.11,30.02,10,8,2,5,1,,0.00,0,,347
2012-11-21,64,49,34,41,34,28,93,65,30,30.16,30.12,30.06,10,9,6,5,2,,0.00,0,,20
2012-11-22,64,49,34,36,31,27,85,56,27,30.24,30.18,30.13,10,10,10,7,1,,0.00,0,,340
2012-11-23,66,50,35,42,34,26,89,58,30,30.13,30.00,29.88,10,10,10,16,3,30,0.00,1,,286
2012-11-24,48,41,28,26,21,16,67,45,27,30.09,30.01,29.94,10,10,10,15,6,17,0.00,0,,321
2012-11-25,52,39,26,23,19,17,72,50,26,30.14,30.06,29.99,10,10,10,10,4,16,0.00,0,,208
2012-11-26,63,46,28,27,24,20,78,45,22,30.17,30.11,30.04,10,10,10,8,2,,0.00,1,,273
2012-11-27,52,48,44,42,39,30,90,71,46,30.19,30.11,30.07,10,10,10,6,2,,0.01,8,Rain,41
2012-11-28,54,46,34,37,29,21,83,56,29,30.35,30.27,30.19,10,10,8,8,2,,0.00,3,,315
2012-11-29,55,42,28,35,29,23,88,66,37,30.44,30.37,30.32,10,10,8,6,1,,0.00,0,,196
2012-11-30,62,46,30,39,34,28,89,68,34,30.36,30.30,30.24,10,9,6,8,1,,0.00,0,,205